Saint George, Canada
Current Conditions -  °F | °C
As of 12:07 AM on Thursday 18 Dec 2014 (Local Time) from CYSJ Reporting Station
Moderate Rain Moderate Rain  
Wind Chill: -4°   Ceiling: 1500
Heat Index:   Visibility: 2mi
Dew Point:   Wind: 13mph
Humidity: 93%   Direction: 10°N
Pressure: 29.54"   Gusts: NA
Location:  45.13°N, 66.82°W
Report Text: CYSJ 180407Z 01011KT 2SM RA BR OVC015 01/00 A2954 RMK SC8 SLP009
Loading
Personal Weather Stations






























Interactive Weather Map New forecast layout! Learn more

10-Day Weather Forecast

Advertisements
Track Severe Weather on mobile